Orenge 7 — JL6148 — position and weather

sailwx.info

Track history (hours):
 
Tides and Currents Weather Stations Pressure Air Temp Water Temp Dewpoint Dewpoint Depression Visibility Wind Speed Wind Dir Waves Ship Positions

Orenge 7

Last reported at 2016-May-02 15:12 UTC. Time now 2016-May-03 01:04 UTC.
Position N 34°33' E 134°46'.

Length 163 m; draft 4.9 m.

Type: Passenger vessel. MMSI: 431500186.

Date/timePositionNaut miles runAvg speedWind from/ knotsBaromVisibWave heightAir tempDewpointWater temp
2016-May-02 15:12N 34°33' E 134°46'1218.3
2016-May-02 14:32N 34°38' E 135°00'1717.5
2016-May-02 13:33N 34°37' E 135°21'4 3.7
2016-May-02 12:33N 34°37' E 135°26'0 0.0
2016-May-02 11:33N 34°37' E 135°26'0 0.0
2016-May-02 10:33N 34°37' E 135°26'0 0.0
2016-May-02 09:33N 34°37' E 135°26'0 0.0
2016-May-02 08:33N 34°37' E 135°26'0 0.0
2016-May-02 07:33N 34°37' E 135°26'0 0.0
2016-May-02 06:27N 34°37' E 135°26'0 0.0
2016-May-02 05:33N 34°37' E 135°26'0 0.0
2016-May-02 04:33N 34°37' E 135°26'0 0.0
2016-May-02 03:33N 34°37' E 135°26'0 0.0
2016-May-02 02:33N 34°37' E 135°26'0 0.0
2016-May-02 01:33N 34°37' E 135°26'0 0.0
2016-May-02 00:33N 34°37' E 135°26'0 0.0
2016-May-01 23:33N 34°37' E 135°26'0 0.0
2016-May-01 22:33N 34°37' E 135°26'0 0.0
2016-May-01 21:33N 34°37' E 135°26'6 6.1
2016-May-01 20:33N 34°36' E 135°19'1817.5
2016-May-01 19:33N 34°36' E 134°57'1 0.0
2016-Apr-30 14:33N 34°37' E 134°57'1817.7
2016-Apr-30 13:33N 34°36' E 135°18'6 5.2
2016-Apr-30 12:20N 34°37' E 135°26'0 0.0
2016-Apr-30 11:32N 34°37' E 135°26'0 0.0
2016-Apr-30 10:32N 34°37' E 135°26'0 0.0
2016-Apr-30 09:26N 34°37' E 135°26'0 0.0
2016-Apr-30 08:26N 34°37' E 135°26'0 0.0
2016-Apr-30 07:26N 34°37' E 135°26'0 0.0
2016-Apr-30 06:32N 34°37' E 135°26'0 0.0
2016-Apr-30 05:26N 34°37' E 135°26'0 0.0
2016-Apr-30 04:32N 34°37' E 135°26'0 0.0
2016-Apr-30 03:32N 34°37' E 135°26'0 0.0
2016-Apr-30 02:32N 34°37' E 135°26'0 0.0
2016-Apr-30 01:32N 34°37' E 135°26'0 0.0
2016-Apr-30 00:26N 34°37' E 135°26'0 0.0
2016-Apr-29 23:26N 34°37' E 135°26'0 0.0
2016-Apr-29 22:32N 34°37' E 135°26'0 0.0
2016-Apr-29 21:32N 34°37' E 135°26'5 5.6
2016-Apr-29 20:34N 34°36' E 135°19'1717.3
2016-Apr-29 19:34N 34°37' E 134°58'2 0.1
2016-Apr-28 14:34N 34°37' E 134°56'1918.8
2016-Apr-28 13:34N 34°37' E 135°18'6 6.1
2016-Apr-28 12:31N 34°37' E 135°26'0 0.0
2016-Apr-28 11:31N 34°37' E 135°26'0 0.0
2016-Apr-28 10:31N 34°37' E 135°26'0 0.0
2016-Apr-28 09:25N 34°37' E 135°26'0 0.0
2016-Apr-28 08:25N 34°37' E 135°26'0 0.0
2016-Apr-28 07:31N 34°37' E 135°26'0 0.0
2016-Apr-28 06:31N 34°37' E 135°26'0 0.0
2016-Apr-28 05:31N 34°37' E 135°26'0 0.0
2016-Apr-28 04:32N 34°37' E 135°26'0 0.0
2016-Apr-28 03:31N 34°37' E 135°26'0 0.0
2016-Apr-28 02:31N 34°37' E 135°26'0 0.0
2016-Apr-28 01:31N 34°37' E 135°26'0 0.0
2016-Apr-28 00:31N 34°37' E 135°26'0 0.0
2016-Apr-27 23:25N 34°37' E 135°26'0 0.0
2016-Apr-27 22:31N 34°37' E 135°26'0 0.0
2016-Apr-27 21:19N 34°37' E 135°26'6 7.4
2016-Apr-27 20:33N 34°36' E 135°19'1817.6
2016-Apr-27 19:33N 34°37' E 134°58'1 0.0
2016-Apr-26 14:33N 34°37' E 134°56'1918.7
2016-Apr-26 13:33N 34°37' E 135°19'6 5.4
2016-Apr-26 12:30N 34°37' E 135°26'0 0.0
2016-Apr-26 11:30N 34°37' E 135°26'0 0.0
2016-Apr-26 10:30N 34°37' E 135°26'0 0.0
2016-Apr-26 09:30N 34°37' E 135°26'0 0.0
2016-Apr-26 08:30N 34°37' E 135°26'0 0.0
2016-Apr-26 07:30N 34°37' E 135°26'0 0.0
2016-Apr-26 06:24N 34°37' E 135°26'0 0.0
2016-Apr-26 05:30N 34°37' E 135°26'0 0.0
2016-Apr-26 04:30N 34°37' E 135°26'0 0.0
2016-Apr-26 03:30N 34°37' E 135°26'0 0.0
2016-Apr-26 02:30N 34°37' E 135°26'0 0.0
2016-Apr-26 01:30N 34°37' E 135°26'0 0.0
2016-Apr-26 00:30N 34°37' E 135°26'0 0.0
2016-Apr-25 23:30N 34°37' E 135°26'0 0.0
2016-Apr-25 22:12N 34°37' E 135°26'0 0.0
2016-Apr-25 21:18N 34°37' E 135°26'5 6.9
2016-Apr-25 20:33N 34°36' E 135°20'1817.1
2016-Apr-25 19:32N 34°37' E 134°58'3 0.1
2016-Apr-24 14:33N 34°36' E 134°55'1919.5
2016-Apr-24 13:33N 34°37' E 135°18'7 6.1
2016-Apr-24 12:29N 34°37' E 135°26'0 0.0
2016-Apr-24 11:29N 34°37' E 135°26'0 0.0
2016-Apr-24 10:29N 34°37' E 135°26'0 0.0
2016-Apr-24 09:29N 34°37' E 135°26'0 0.0
2016-Apr-24 07:29N 34°37' E 135°26'0 0.0
2016-Apr-24 06:29N 34°37' E 135°26'0 0.0
2016-Apr-24 05:29N 34°37' E 135°26'0 0.0
2016-Apr-24 04:29N 34°37' E 135°26'0 0.0
2016-Apr-24 03:29N 34°37' E 135°26'0 0.0
2016-Apr-24 02:29N 34°37' E 135°26'0 0.0
2016-Apr-24 01:29N 34°37' E 135°26'0 0.0
2016-Apr-24 00:29N 34°37' E 135°26'0 0.0
2016-Apr-23 23:29N 34°37' E 135°26'0 0.0
2016-Apr-23 22:23N 34°37' E 135°26'0 0.0
2016-Apr-23 21:23N 34°37' E 135°26'5 6.4
2016-Apr-23 20:33N 34°36' E 135°20'1716.8
2016-Apr-23 19:33N 34°37' E 134°59'  
Track history (hours):
 
Tides and Currents Weather Stations Pressure Air Temp Water Temp Dewpoint Dewpoint Depression Visibility Wind Speed Wind Dir Waves Ship Positions

Orenge 7

Last reported at 2016-May-02 15:12 UTC. Time now 2016-May-03 01:04 UTC.
Position N 34°33' E 134°46'.

Length 163 m; draft 4.9 m.

Type: Passenger vessel. MMSI: 431500186.

Date/timePositionNaut miles runAvg speedWind from/ knotsBaromVisibWave heightAir tempDewpointWater temp
2016-May-02 15:12N 34°33' E 134°46'1218.3
2016-May-02 14:32N 34°38' E 135°00'1717.5
2016-May-02 13:33N 34°37' E 135°21'4 3.7
2016-May-02 12:33N 34°37' E 135°26'0 0.0
2016-May-02 11:33N 34°37' E 135°26'0 0.0
2016-May-02 10:33N 34°37' E 135°26'0 0.0
2016-May-02 09:33N 34°37' E 135°26'0 0.0
2016-May-02 08:33N 34°37' E 135°26'0 0.0
2016-May-02 07:33N 34°37' E 135°26'0 0.0
2016-May-02 06:27N 34°37' E 135°26'0 0.0
2016-May-02 05:33N 34°37' E 135°26'0 0.0
2016-May-02 04:33N 34°37' E 135°26'0 0.0
2016-May-02 03:33N 34°37' E 135°26'0 0.0
2016-May-02 02:33N 34°37' E 135°26'0 0.0
2016-May-02 01:33N 34°37' E 135°26'0 0.0
2016-May-02 00:33N 34°37' E 135°26'0 0.0
2016-May-01 23:33N 34°37' E 135°26'0 0.0
2016-May-01 22:33N 34°37' E 135°26'0 0.0
2016-May-01 21:33N 34°37' E 135°26'6 6.1
2016-May-01 20:33N 34°36' E 135°19'1817.5
2016-May-01 19:33N 34°36' E 134°57'1 0.0
2016-Apr-30 14:33N 34°37' E 134°57'1817.7
2016-Apr-30 13:33N 34°36' E 135°18'6 5.2
2016-Apr-30 12:20N 34°37' E 135°26'0 0.0
2016-Apr-30 11:32N 34°37' E 135°26'0 0.0
2016-Apr-30 10:32N 34°37' E 135°26'0 0.0
2016-Apr-30 09:26N 34°37' E 135°26'0 0.0
2016-Apr-30 08:26N 34°37' E 135°26'0 0.0
2016-Apr-30 07:26N 34°37' E 135°26'0 0.0
2016-Apr-30 06:32N 34°37' E 135°26'0 0.0
2016-Apr-30 05:26N 34°37' E 135°26'0 0.0
2016-Apr-30 04:32N 34°37' E 135°26'0 0.0
2016-Apr-30 03:32N 34°37' E 135°26'0 0.0
2016-Apr-30 02:32N 34°37' E 135°26'0 0.0
2016-Apr-30 01:32N 34°37' E 135°26'0 0.0
2016-Apr-30 00:26N 34°37' E 135°26'0 0.0
2016-Apr-29 23:26N 34°37' E 135°26'0 0.0
2016-Apr-29 22:32N 34°37' E 135°26'0 0.0
2016-Apr-29 21:32N 34°37' E 135°26'5 5.6
2016-Apr-29 20:34N 34°36' E 135°19'1717.3
2016-Apr-29 19:34N 34°37' E 134°58'2 0.1
2016-Apr-28 14:34N 34°37' E 134°56'1918.8
2016-Apr-28 13:34N 34°37' E 135°18'6 6.1
2016-Apr-28 12:31N 34°37' E 135°26'0 0.0
2016-Apr-28 11:31N 34°37' E 135°26'0 0.0
2016-Apr-28 10:31N 34°37' E 135°26'0 0.0
2016-Apr-28 09:25N 34°37' E 135°26'0 0.0
2016-Apr-28 08:25N 34°37' E 135°26'0 0.0
2016-Apr-28 07:31N 34°37' E 135°26'0 0.0
2016-Apr-28 06:31N 34°37' E 135°26'0 0.0
2016-Apr-28 05:31N 34°37' E 135°26'0 0.0
2016-Apr-28 04:32N 34°37' E 135°26'0 0.0
2016-Apr-28 03:31N 34°37' E 135°26'0 0.0
2016-Apr-28 02:31N 34°37' E 135°26'0 0.0
2016-Apr-28 01:31N 34°37' E 135°26'0 0.0
2016-Apr-28 00:31N 34°37' E 135°26'0 0.0
2016-Apr-27 23:25N 34°37' E 135°26'0 0.0
2016-Apr-27 22:31N 34°37' E 135°26'0 0.0
2016-Apr-27 21:19N 34°37' E 135°26'6 7.4
2016-Apr-27 20:33N 34°36' E 135°19'1817.6
2016-Apr-27 19:33N 34°37' E 134°58'1 0.0
2016-Apr-26 14:33N 34°37' E 134°56'1918.7
2016-Apr-26 13:33N 34°37' E 135°19'6 5.4
2016-Apr-26 12:30N 34°37' E 135°26'0 0.0
2016-Apr-26 11:30N 34°37' E 135°26'0 0.0
2016-Apr-26 10:30N 34°37' E 135°26'0 0.0
2016-Apr-26 09:30N 34°37' E 135°26'0 0.0
2016-Apr-26 08:30N 34°37' E 135°26'0 0.0
2016-Apr-26 07:30N 34°37' E 135°26'0 0.0
2016-Apr-26 06:24N 34°37' E 135°26'0 0.0
2016-Apr-26 05:30N 34°37' E 135°26'0 0.0
2016-Apr-26 04:30N 34°37' E 135°26'0 0.0
2016-Apr-26 03:30N 34°37' E 135°26'0 0.0
2016-Apr-26 02:30N 34°37' E 135°26'0 0.0
2016-Apr-26 01:30N 34°37' E 135°26'0 0.0
2016-Apr-26 00:30N 34°37' E 135°26'0 0.0
2016-Apr-25 23:30N 34°37' E 135°26'0 0.0
2016-Apr-25 22:12N 34°37' E 135°26'0 0.0
2016-Apr-25 21:18N 34°37' E 135°26'5 6.9
2016-Apr-25 20:33N 34°36' E 135°20'1817.1
2016-Apr-25 19:32N 34°37' E 134°58'3 0.1
2016-Apr-24 14:33N 34°36' E 134°55'1919.5
2016-Apr-24 13:33N 34°37' E 135°18'7 6.1
2016-Apr-24 12:29N 34°37' E 135°26'0 0.0
2016-Apr-24 11:29N 34°37' E 135°26'0 0.0
2016-Apr-24 10:29N 34°37' E 135°26'0 0.0
2016-Apr-24 09:29N 34°37' E 135°26'0 0.0
2016-Apr-24 07:29N 34°37' E 135°26'0 0.0
2016-Apr-24 06:29N 34°37' E 135°26'0 0.0
2016-Apr-24 05:29N 34°37' E 135°26'0 0.0
2016-Apr-24 04:29N 34°37' E 135°26'0 0.0
2016-Apr-24 03:29N 34°37' E 135°26'0 0.0
2016-Apr-24 02:29N 34°37' E 135°26'0 0.0
2016-Apr-24 01:29N 34°37' E 135°26'0 0.0
2016-Apr-24 00:29N 34°37' E 135°26'0 0.0
2016-Apr-23 23:29N 34°37' E 135°26'0 0.0
2016-Apr-23 22:23N 34°37' E 135°26'0 0.0
2016-Apr-23 21:23N 34°37' E 135°26'5 6.4
2016-Apr-23 20:33N 34°36' E 135°20'1716.8
2016-Apr-23 19:33N 34°37' E 134°59'  

Dump ship's entire track history